Agana, Guam
Current Conditions -  °F | °C
As of 7:54 PM on Sunday 21 Dec 2014 (Local Time) from PGUM Reporting Station
Broken Clouds Broken Clouds  
Wind Chill: 83°   Ceiling: 3500
Heat Index: 90°   Visibility: 10mi
Dew Point: 75°   Wind: 13mph
Humidity: 77%   Direction: 80°E
Pressure: 29.88"   Gusts: NA
Location:  13.4751°N, 144.7484°E
Report Text: PGUM 210954Z 08011KT 10SM SCT022 SCT029 BKN035 28/24 A2988 RMK AO2 SLP109 T02830239
Loading
Personal Weather Stations






























Interactive Weather Map New forecast layout! Learn more

10-Day Weather Forecast

Advertisements
Track Severe Weather on mobile